Time;durP1;ratioP1;P1;durP2;ratioP2;P2;SDS_P1;SDS_P2;PMS_P1;PMS_P2;Temp;Humidity;BMP_temperature;BMP_pressure;BME280_temperature;BME280_humidity;BME280_pressure;Samples;Min_cycle;Max_cycle;Signal;HPM_P1;HPM_P2
2021/10/15 00:00:57;;;;;;;16.42;4.30;;;;;;;11.71;68.92;101592.34;5073970;28;20083;-64
2021/10/15 00:03:24;;;;;;;19.70;4.93;;;;;;;11.64;69.24;101592.09;5071022;28;20501;-64
2021/10/15 00:05:50;;;;;;;13.80;4.50;;;;;;;11.68;68.98;101585.50;5072237;28;20094;-64
2021/10/15 00:08:17;;;;;;;13.77;4.63;;;;;;;11.60;69.84;101585.34;5033292;28;20037;-64
2021/10/15 00:10:45;;;;;;;11.85;4.45;;;;;;;11.53;70.73;101587.75;5046760;28;20075;-64
2021/10/15 00:13:11;;;;;;;18.10;4.70;;;;;;;11.57;69.08;101588.31;5052331;28;20061;-64
2021/10/15 00:15:38;;;;;;;15.98;4.70;;;;;;;11.59;68.83;101585.50;5054669;28;20486;-64
2021/10/15 00:18:05;;;;;;;19.63;4.60;;;;;;;11.53;68.88;101584.25;5055435;28;20127;-65
2021/10/15 00:20:32;;;;;;;15.73;4.95;;;;;;;11.55;68.98;101570.81;5071689;28;20105;-65
2021/10/15 00:22:58;;;;;;;13.77;4.45;;;;;;;11.39;69.38;101577.53;5071500;28;20032;-64
2021/10/15 00:25:25;;;;;;;20.85;4.70;;;;;;;11.42;69.73;101573.75;5071898;28;20045;-65
2021/10/15 00:27:52;;;;;;;17.08;4.80;;;;;;;11.38;71.11;101569.69;5072628;28;20140;-64
2021/10/15 00:30:19;;;;;;;14.93;4.75;;;;;;;11.30;70.85;101570.41;5073091;28;20074;-64
2021/10/15 00:32:45;;;;;;;13.48;5.22;;;;;;;11.52;68.98;101561.31;5072925;28;20051;-64
2021/10/15 00:35:12;;;;;;;15.48;5.53;;;;;;;11.43;69.03;101563.00;5070119;28;20044;-65
2021/10/15 00:37:39;;;;;;;13.63;4.63;;;;;;;11.40;69.71;101563.25;5072985;28;20041;-64
2021/10/15 00:40:06;;;;;;;13.55;4.20;;;;;;;11.39;70.00;101560.75;5071626;28;20045;-64
2021/10/15 00:42:37;;;;;;;13.82;4.50;;;;;;;11.44;69.06;101561.16;5071397;28;20044;-64
2021/10/15 00:45:05;;;;;;;15.82;4.60;;;;;;;11.45;69.10;101550.41;5071348;28;20049;-65
2021/10/15 00:47:32;;;;;;;19.15;5.22;;;;;;;11.49;68.68;101549.13;5071472;28;20037;-64
2021/10/15 00:49:58;;;;;;;19.05;5.03;;;;;;;11.46;68.90;101551.22;5051573;28;20047;-64
2021/10/15 00:52:28;;;;;;;12.02;4.45;;;;;;;11.44;69.62;101542.56;5064374;28;20044;-64
2021/10/15 00:54:55;;;;;;;16.52;4.63;;;;;;;11.36;69.73;101539.78;5072572;28;20123;-64
2021/10/15 00:57:22;;;;;;;13.73;4.80;;;;;;;11.38;69.04;101540.47;5072744;28;20059;-64
2021/10/15 00:59:50;;;;;;;12.30;4.13;;;;;;;11.33;69.06;101539.09;5070825;28;20040;-65
2021/10/15 01:02:17;;;;;;;12.93;4.30;;;;;;;11.33;69.10;101533.78;5071387;28;20834;-64
2021/10/15 01:04:45;;;;;;;13.18;4.38;;;;;;;11.35;68.69;101525.69;5070483;28;20131;-64
2021/10/15 01:07:13;;;;;;;17.48;4.93;;;;;;;11.18;69.55;101521.88;5072427;28;20044;-64
2021/10/15 01:09:41;;;;;;;13.32;4.82;;;;;;;11.16;70.05;101523.00;5056394;28;20043;-64
2021/10/15 01:12:09;;;;;;;20.85;5.35;;;;;;;11.05;70.65;101519.50;5072576;28;20446;-64
2021/10/15 01:14:36;;;;;;;16.17;5.20;;;;;;;10.97;70.86;101523.81;5071797;28;20040;-64
2021/10/15 01:17:04;;;;;;;20.90;5.50;;;;;;;11.09;69.74;101512.91;5070871;28;20451;-64
2021/10/15 01:19:32;;;;;;;16.85;4.50;;;;;;;10.98;70.64;101510.41;5072386;28;20037;-64
2021/10/15 01:22:03;;;;;;;16.83;5.07;;;;;;;10.89;71.38;101514.72;5072768;28;20041;-64
2021/10/15 01:24:32;;;;;;;16.92;5.18;;;;;;;10.83;70.87;101507.31;5072537;28;20041;-64
2021/10/15 01:27:04;;;;;;;17.20;5.18;;;;;;;10.81;71.21;101503.13;5054669;28;20045;-64
2021/10/15 01:29:31;;;;;;;20.55;5.28;;;;;;;10.74;71.04;101497.50;5072661;28;20051;-64
2021/10/15 01:31:57;;;;;;;24.15;6.22;;;;;;;10.82;70.92;101500.31;5071575;28;20485;-64
2021/10/15 01:34:24;;;;;;;13.80;4.88;;;;;;;10.73;71.62;101491.38;5072634;28;20041;-64
2021/10/15 01:36:51;;;;;;;15.40;5.45;;;;;;;10.64;71.53;101486.03;5069924;28;20090;-64
2021/10/15 01:39:18;;;;;;;20.58;5.38;;;;;;;10.57;72.50;101493.72;5071245;28;20033;-64
2021/10/15 01:41:45;;;;;;;17.85;5.45;;;;;;;10.58;71.92;101476.81;5071979;28;20775;-64
2021/10/15 01:44:12;;;;;;;18.90;5.07;;;;;;;10.58;72.09;101479.44;5068364;28;20044;-64
2021/10/15 01:46:39;;;;;;;13.30;5.13;;;;;;;10.53;72.31;101473.72;5072300;28;20512;-64
2021/10/15 01:49:06;;;;;;;15.18;5.38;;;;;;;10.57;72.15;101475.13;5071421;28;20033;-64
2021/10/15 01:51:32;;;;;;;20.42;5.65;;;;;;;10.52;72.10;101467.56;5072422;28;20044;-64
2021/10/15 01:53:59;;;;;;;29.17;5.88;;;;;;;10.32;73.34;101465.84;5070796;28;20388;-64
2021/10/15 01:56:25;;;;;;;13.40;5.72;;;;;;;10.29;73.44;101466.06;5061553;28;20041;-64
2021/10/15 01:58:52;;;;;;;17.75;5.50;;;;;;;10.33;73.20;101465.72;5071842;28;20123;-64
2021/10/15 02:01:19;;;;;;;17.83;5.50;;;;;;;10.53;71.93;101457.78;5075977;28;20106;-63
2021/10/15 02:03:46;;;;;;;16.55;5.60;;;;;;;10.44;72.10;101456.81;5074356;28;20171;-65
2021/10/15 02:06:13;;;;;;;14.00;5.25;;;;;;;10.26;73.12;101463.69;5075619;28;20557;-64
2021/10/15 02:08:40;;;;;;;23.17;5.45;;;;;;;10.40;72.59;101455.38;5075518;28;20082;-64
2021/10/15 02:11:07;;;;;;;21.63;5.53;;;;;;;10.35;72.45;101454.94;5075936;28;20094;-65
2021/10/15 02:13:34;;;;;;;23.15;6.32;;;;;;;10.23;72.84;101448.06;5075360;28;20472;-65
2021/10/15 02:16:01;;;;;;;18.85;6.40;;;;;;;10.33;72.81;101446.28;5075366;28;20094;-65
2021/10/15 02:18:28;;;;;;;14.00;5.50;;;;;;;10.21;72.91;101450.84;5075205;28;20040;-64
2021/10/15 02:20:54;;;;;;;17.80;6.13;;;;;;;10.25;73.33;101444.28;5075548;28;20044;-64
2021/10/15 02:23:23;;;;;;;17.63;6.38;;;;;;;10.24;73.10;101439.13;5075335;28;20044;-64
2021/10/15 02:25:51;;;;;;;20.85;5.97;;;;;;;10.21;73.99;101440.25;5075551;28;20040;-64
2021/10/15 02:28:17;;;;;;;16.77;6.10;;;;;;;10.24;73.50;101439.13;5075164;28;20448;-65
2021/10/15 02:30:44;;;;;;;19.30;6.55;;;;;;;10.22;73.31;101433.94;5051216;28;20074;-65
2021/10/15 02:33:12;;;;;;;21.13;6.47;;;;;;;10.31;72.99;101437.63;5074449;28;20090;-66
2021/10/15 02:35:39;;;;;;;19.80;6.50;;;;;;;10.22;73.20;101422.50;5074253;28;20448;-64
2021/10/15 02:38:05;;;;;;;21.27;6.22;;;;;;;10.33;72.92;101425.94;5075325;28;20071;-64
2021/10/15 02:40:32;;;;;;;18.30;6.40;;;;;;;10.24;72.90;101415.25;5075241;28;20050;-65
2021/10/15 02:42:59;;;;;;;23.08;7.20;;;;;;;10.18;73.69;101413.97;5075295;28;20049;-64
2021/10/15 02:45:26;;;;;;;18.65;6.70;;;;;;;10.24;73.25;101407.31;5075224;28;20044;-64
2021/10/15 02:47:53;;;;;;;17.83;6.65;;;;;;;10.31;73.10;101401.34;5054218;28;20056;-64
2021/10/15 02:50:19;;;;;;;15.80;6.05;;;;;;;10.29;72.89;101407.75;5029048;28;20056;-64
2021/10/15 02:52:46;;;;;;;24.65;7.20;;;;;;;10.21;73.20;101410.25;5075295;28;20047;-64
2021/10/15 02:55:13;;;;;;;21.13;6.70;;;;;;;10.23;73.31;101403.81;5074987;28;20050;-64
2021/10/15 02:57:39;;;;;;;18.63;6.50;;;;;;;10.36;72.68;101400.94;5075271;28;20043;-64
2021/10/15 03:00:07;;;;;;;15.65;6.70;;;;;;;10.28;72.91;101398.13;5057543;28;20405;-64
2021/10/15 03:02:33;;;;;;;20.17;6.45;;;;;;;10.22;73.30;101399.47;5074000;28;20094;-64
2021/10/15 03:05:01;;;;;;;14.75;6.60;;;;;;;10.27;73.11;101388.47;5065580;28;20037;-64
2021/10/15 03:07:27;;;;;;;32.10;6.70;;;;;;;10.25;73.08;101383.31;5067578;28;20047;-64
2021/10/15 03:09:54;;;;;;;19.15;7.00;;;;;;;10.31;73.13;101384.59;5073263;28;20033;-64
2021/10/15 03:12:21;;;;;;;16.40;7.05;;;;;;;10.31;73.10;101382.78;5074263;28;20074;-64
2021/10/15 03:14:47;;;;;;;17.10;6.63;;;;;;;10.36;72.69;101379.72;5073550;28;20110;-64
2021/10/15 03:17:14;;;;;;;18.17;6.78;;;;;;;10.28;73.08;101380.38;5074529;28;20098;-64
2021/10/15 03:19:41;;;;;;;15.55;6.45;;;;;;;10.38;72.97;101383.91;5074174;28;20048;-64
2021/10/15 03:22:07;;;;;;;20.92;7.10;;;;;;;10.35;72.96;101384.22;5073502;28;20033;-64
2021/10/15 03:24:34;;;;;;;16.60;6.72;;;;;;;10.41;72.60;101380.16;5073254;28;20551;-64
2021/10/15 03:27:01;;;;;;;19.10;7.55;;;;;;;10.38;72.89;101375.13;5073796;28;20132;-64
2021/10/15 03:29:28;;;;;;;16.77;6.95;;;;;;;10.43;73.01;101372.06;5074056;28;20062;-64
2021/10/15 03:31:55;;;;;;;23.10;6.68;;;;;;;10.43;72.42;101367.59;5071082;28;20436;-64
2021/10/15 03:34:21;;;;;;;16.48;7.18;;;;;;;10.49;72.58;101360.91;5072610;28;20041;-64
2021/10/15 03:36:48;;;;;;;22.65;6.93;;;;;;;10.43;72.70;101356.16;5074174;28;20123;-64
2021/10/15 03:39:15;;;;;;;20.73;6.68;;;;;;;10.41;72.51;101350.16;5074193;28;20036;-64
2021/10/15 03:41:41;;;;;;;23.30;7.35;;;;;;;10.42;72.47;101360.59;5073064;28;20516;-64
2021/10/15 03:44:09;;;;;;;21.67;6.68;;;;;;;10.56;72.33;101356.72;5070462;28;20044;-64
2021/10/15 03:46:36;;;;;;;19.50;7.32;;;;;;;10.53;72.37;101352.53;5072718;28;20048;-64
2021/10/15 03:49:03;;;;;;;19.92;6.97;;;;;;;10.58;72.18;101360.06;5087540;28;20037;-64
2021/10/15 03:51:30;;;;;;;14.55;6.72;;;;;;;10.53;72.23;101357.84;5073917;28;20048;-64
2021/10/15 03:53:56;;;;;;;21.08;7.38;;;;;;;10.50;72.53;101360.75;5072936;28;20036;-64
2021/10/15 03:56:23;;;;;;;14.23;6.38;;;;;;;10.55;71.99;101358.53;5073756;28;20132;-64
2021/10/15 03:58:50;;;;;;;14.82;6.97;;;;;;;10.58;71.78;101360.06;5073147;28;20382;-64
2021/10/15 04:01:16;;;;;;;19.50;7.47;;;;;;;10.55;72.20;101352.38;5073516;28;20037;-64
2021/10/15 04:03:43;;;;;;;24.95;6.75;;;;;;;10.61;71.67;101356.31;5071043;28;20040;-64
2021/10/15 04:06:10;;;;;;;19.58;6.68;;;;;;;10.67;71.25;101355.75;5073837;28;20040;-64
2021/10/15 04:08:37;;;;;;;16.33;7.07;;;;;;;10.64;70.88;101342.75;5074086;28;20558;-64
2021/10/15 04:11:04;;;;;;;24.15;6.97;;;;;;;10.57;71.87;101353.09;5056155;28;20401;-64
2021/10/15 04:13:30;;;;;;;17.17;7.20;;;;;;;10.57;71.49;101345.16;5072511;28;20114;-64
2021/10/15 04:16:01;;;;;;;21.27;7.22;;;;;;;10.70;70.98;101339.56;5072105;28;20081;-64
2021/10/15 04:18:29;;;;;;;20.88;7.20;;;;;;;10.63;71.29;101338.44;5073384;28;20048;-64
2021/10/15 04:20:55;;;;;;;14.30;7.05;;;;;;;10.72;70.95;101333.13;5071734;28;20520;-64
2021/10/15 04:23:22;;;;;;;17.48;6.68;;;;;;;10.65;71.65;101331.16;5070816;28;20443;-64
2021/10/15 04:25:49;;;;;;;20.52;6.95;;;;;;;10.70;71.20;101329.78;5059001;28;20490;-64
2021/10/15 04:28:16;;;;;;;18.27;6.22;;;;;;;10.64;71.21;101316.22;5071565;28;20056;-64
2021/10/15 04:30:44;;;;;;;20.30;6.90;;;;;;;10.60;72.25;101315.66;5071269;28;20063;-64
2021/10/15 04:33:11;;;;;;;13.35;6.63;;;;;;;10.67;71.60;101318.59;5072449;28;20397;-64
2021/10/15 04:35:39;;;;;;;20.25;6.78;;;;;;;10.78;70.87;101315.78;5072885;28;20044;-64
2021/10/15 04:38:05;;;;;;;13.73;6.63;;;;;;;10.72;71.13;101311.06;5072667;28;20049;-65
2021/10/15 04:40:32;;;;;;;18.00;6.90;;;;;;;10.78;71.08;101310.47;5058751;28;20044;-65
2021/10/15 04:43:00;;;;;;;15.88;6.40;;;;;;;10.74;70.91;101317.06;5072660;28;20413;-65
2021/10/15 04:45:27;;;;;;;20.77;6.90;;;;;;;10.66;71.58;101308.94;5071639;28;20443;-65
2021/10/15 04:47:53;;;;;;;15.18;6.38;;;;;;;10.70;71.10;101311.19;5073283;28;20059;-64
2021/10/15 04:50:20;;;;;;;21.73;6.57;;;;;;;10.75;71.32;101305.44;5055131;28;20036;-64
2021/10/15 04:52:47;;;;;;;17.20;6.20;;;;;;;10.72;71.51;101300.44;5073151;28;20044;-64
2021/10/15 04:55:14;;;;;;;24.83;6.45;;;;;;;10.66;71.42;101293.03;5072619;28;20501;-64
2021/10/15 04:57:41;;;;;;;22.63;6.93;;;;;;;10.71;71.72;101307.56;5071833;28;20051;-64
2021/10/15 05:00:08;;;;;;;13.40;6.15;;;;;;;10.73;71.61;101305.63;5072747;28;20079;-64
2021/10/15 05:02:40;;;;;;;20.83;6.00;;;;;;;10.68;72.00;101307.03;5073078;28;20117;-65
2021/10/15 05:05:09;;;;;;;23.90;6.85;;;;;;;10.87;71.14;101298.19;5069813;28;20504;-64
2021/10/15 05:07:37;;;;;;;24.02;6.72;;;;;;;10.79;71.89;101298.91;5071706;28;20047;-65
2021/10/15 05:10:04;;;;;;;25.25;7.05;;;;;;;10.79;71.95;101304.22;5072212;28;20513;-65
2021/10/15 05:12:31;;;;;;;17.73;6.50;;;;;;;10.84;71.68;101293.16;5071804;28;20052;-65
2021/10/15 05:14:58;;;;;;;14.27;6.25;;;;;;;10.80;71.63;101286.47;5072694;28;20039;-65
2021/10/15 05:17:25;;;;;;;16.85;6.60;;;;;;;10.77;71.95;101290.25;5072723;28;20040;-65
2021/10/15 05:19:52;;;;;;;19.23;6.72;;;;;;;10.80;72.07;101289.94;5071832;28;20032;-65
2021/10/15 05:22:18;;;;;;;18.48;6.80;;;;;;;10.85;71.69;101293.00;5054983;28;20040;-65
2021/10/15 05:24:45;;;;;;;22.23;6.90;;;;;;;10.86;72.28;101283.22;5072455;28;20164;-65
2021/10/15 05:27:12;;;;;;;17.60;6.68;;;;;;;10.98;71.71;101289.22;5070926;28;20075;-65
2021/10/15 05:29:38;;;;;;;16.65;6.55;;;;;;;10.96;71.38;101286.72;5072561;28;20504;-65
2021/10/15 05:32:05;;;;;;;15.25;6.13;;;;;;;10.78;72.40;101283.13;5072064;28;20032;-65
2021/10/15 05:34:32;;;;;;;16.95;6.50;;;;;;;10.78;72.74;101283.94;5070587;28;20405;-65
2021/10/15 05:36:59;;;;;;;16.83;6.07;;;;;;;10.91;72.10;101283.63;5059628;28;20043;-64
2021/10/15 05:39:26;;;;;;;21.23;6.22;;;;;;;10.83;72.72;101278.22;5070981;28;20041;-64
2021/10/15 05:41:52;;;;;;;15.80;6.43;;;;;;;10.81;72.27;101281.00;5072069;28;20046;-64
2021/10/15 05:44:19;;;;;;;20.92;6.80;;;;;;;11.02;71.62;101272.84;5071847;28;20041;-64
2021/10/15 05:46:46;;;;;;;16.48;6.30;;;;;;;10.90;72.29;101281.97;5050280;28;20514;-64
2021/10/15 05:49:12;;;;;;;15.48;6.38;;;;;;;10.87;72.39;101274.28;5072298;28;20074;-64
2021/10/15 05:51:42;;;;;;;23.60;6.80;;;;;;;11.00;72.31;101282.78;5071645;28;20047;-64
2021/10/15 05:54:15;;;;;;;23.13;6.68;;;;;;;10.89;72.75;101291.75;5071674;28;20037;-64
2021/10/15 05:56:46;;;;;;;23.55;6.47;;;;;;;10.93;72.25;101279.88;5072149;28;20036;-64
2021/10/15 05:59:13;;;;;;;;;;;;;;;10.99;72.81;101282.91;5072760;28;20054;-64
2021/10/15 06:01:40;;;;;;;15.88;6.20;;;;;;;10.90;72.70;101288.13;5072188;28;19927;-64
2021/10/15 06:15:05;;;;;;;16.73;6.03;;;;;;;11.03;73.18;101266.56;5097106;28;20039;-65
2021/10/15 06:17:34;;;;;;;17.58;6.57;;;;;;;11.07;72.71;101277.75;5081646;28;20492;-64
2021/10/15 06:20:01;;;;;;;19.25;6.13;;;;;;;11.12;72.71;101286.13;5072172;28;20037;-65
2021/10/15 06:22:29;;;;;;;23.25;6.90;;;;;;;11.04;72.89;101281.53;5070301;28;20113;-65
2021/10/15 06:24:56;;;;;;;15.60;6.25;;;;;;;11.00;73.40;101289.91;5073430;28;20123;-65
2021/10/15 06:27:25;;;;;;;24.63;7.00;;;;;;;11.17;72.67;101291.84;5088102;28;20044;-65
2021/10/15 06:29:52;;;;;;;17.77;6.30;;;;;;;11.03;73.62;101289.63;5100965;28;20041;-66
2021/10/15 06:32:21;;;;;;;20.25;7.10;;;;;;;11.11;73.61;101285.28;5098864;28;20101;-64
2021/10/15 06:34:48;;;;;;;19.40;6.28;;;;;;;11.17;73.23;101293.63;5096332;28;20124;-64
2021/10/15 06:37:17;;;;;;;20.70;6.55;;;;;;;11.21;72.89;101289.72;5096105;28;20044;-65
2021/10/15 06:39:44;;;;;;;17.35;6.47;;;;;;;11.19;73.15;101286.34;5092878;28;20748;-64
2021/10/15 06:42:10;;;;;;;18.98;6.47;;;;;;;11.29;72.71;101295.13;5067757;28;20044;-65
2021/10/15 06:44:37;;;;;;;17.55;6.20;;;;;;;11.28;72.38;101289.00;5081345;28;20119;-65
2021/10/15 06:47:05;;;;;;;19.58;6.45;;;;;;;11.23;72.93;101285.09;5087311;28;20435;-65
2021/10/15 06:49:32;;;;;;;17.08;6.05;;;;;;;11.16;73.52;101281.34;5089134;28;20075;-65
2021/10/15 06:51:59;;;;;;;19.20;6.25;;;;;;;11.11;74.04;101279.13;5087626;28;20036;-64
2021/10/15 06:54:26;;;;;;;15.82;6.40;;;;;;;11.20;73.05;101272.94;5088456;28;20036;-64
2021/10/15 06:56:52;;;;;;;17.05;6.47;;;;;;;11.22;73.91;101276.28;5087311;28;20489;-64
2021/10/15 06:59:19;;;;;;;16.17;6.20;;;;;;;11.38;73.22;101283.63;5088961;28;20048;-64
2021/10/15 07:01:46;;;;;;;18.55;5.95;;;;;;;11.41;72.71;101280.69;5089054;28;20044;-65
2021/10/15 07:04:13;;;;;;;15.40;6.35;;;;;;;11.30;74.09;101283.53;5087554;28;20048;-65
2021/10/15 07:06:39;;;;;;;22.73;6.38;;;;;;;11.34;73.24;101287.56;5088215;28;20048;-65
2021/10/15 07:09:06;;;;;;;15.50;6.43;;;;;;;11.40;73.02;101286.16;5087893;28;20037;-65
2021/10/15 07:11:38;;;;;;;17.80;6.43;;;;;;;11.33;73.32;101294.72;5088945;28;20055;-65
2021/10/15 07:14:05;;;;;;;18.17;6.93;;;;;;;11.40;73.54;101291.47;5087865;28;20131;-65
2021/10/15 07:16:33;;;;;;;14.18;6.30;;;;;;;11.45;73.44;101286.56;5082829;28;20476;-65
2021/10/15 07:19:00;;;;;;;18.88;6.38;;;;;;;11.48;73.47;101294.25;5092651;28;20081;-64
2021/10/15 07:21:27;;;;;;;26.48;7.70;;;;;;;11.39;74.12;101287.97;5095429;28;20556;-64
2021/10/15 07:23:54;;;;;;;24.25;7.25;;;;;;;11.41;74.25;101287.84;5093413;28;20083;-64
2021/10/15 07:26:21;;;;;;;18.13;7.10;;;;;;;11.59;73.43;101279.91;5073931;28;20099;-65
2021/10/15 07:28:47;;;;;;;17.63;6.80;;;;;;;11.48;74.05;101278.31;5066172;28;20041;-64
2021/10/15 07:31:15;;;;;;;21.00;6.63;;;;;;;11.52;73.82;101279.69;5056341;28;20045;-66
2021/10/15 07:33:42;;;;;;;22.50;8.15;;;;;;;11.59;73.64;101286.06;5077682;28;20448;-65
2021/10/15 07:36:09;;;;;;;15.80;6.85;;;;;;;11.54;73.75;101285.69;5070934;28;20095;-65
2021/10/15 07:38:37;;;;;;;15.98;6.95;;;;;;;11.63;73.81;101278.66;5071229;28;20047;-65
2021/10/15 07:41:05;;;;;;;18.05;7.10;;;;;;;11.51;74.83;101284.16;5068569;28;20044;-64
2021/10/15 07:43:32;;;;;;;18.42;7.40;;;;;;;11.62;74.04;101280.44;5066613;28;20045;-64
2021/10/15 07:46:00;;;;;;;19.67;6.93;;;;;;;11.56;74.17;101283.69;5066701;28;20493;-65
2021/10/15 07:48:27;;;;;;;21.65;7.40;;;;;;;11.56;74.58;101275.72;5068738;28;20093;-66
2021/10/15 07:50:54;;;;;;;23.05;7.60;;;;;;;11.53;74.42;101286.66;5075485;28;20040;-65
2021/10/15 07:53:21;;;;;;;23.27;7.45;;;;;;;11.59;75.39;101282.56;5064976;28;20531;-66
2021/10/15 07:55:49;;;;;;;22.77;8.25;;;;;;;11.69;74.11;101281.53;5066927;28;20052;-65
2021/10/15 07:58:16;;;;;;;15.18;7.22;;;;;;;11.75;73.83;101288.09;5067168;28;20040;-65
2021/10/15 08:00:42;;;;;;;22.42;7.65;;;;;;;11.75;74.16;101300.53;5070922;28;20033;-65
2021/10/15 08:03:09;;;;;;;17.58;7.95;;;;;;;11.63;74.68;101298.06;5068056;28;20049;-65
2021/10/15 08:05:36;;;;;;;20.27;7.63;;;;;;;11.57;74.88;101296.03;5068629;28;20052;-65
2021/10/15 08:08:03;;;;;;;16.55;7.72;;;;;;;11.68;74.51;101295.81;5065245;28;20124;-65
2021/10/15 08:10:30;;;;;;;24.35;7.75;;;;;;;11.68;75.02;101311.75;5082787;28;20045;-66
2021/10/15 08:12:57;;;;;;;19.25;7.57;;;;;;;11.66;74.87;101304.91;5073121;28;20187;-65
2021/10/15 08:15:24;;;;;;;18.55;7.57;;;;;;;11.80;74.45;101308.91;5073914;28;20086;-66
2021/10/15 08:17:52;;;;;;;20.40;8.10;;;;;;;11.78;74.89;101314.38;5075341;28;20128;-64
2021/10/15 08:20:20;;;;;;;19.08;7.90;;;;;;;11.82;74.85;101304.28;5084076;28;20401;-65
2021/10/15 08:22:48;;;;;;;20.23;8.20;;;;;;;11.88;74.34;101309.84;5077869;28;20052;-64
2021/10/15 08:25:26;;;;;;;20.70;8.23;;;;;;;11.78;74.89;101306.38;5076956;28;20336;-65
2021/10/15 08:27:53;;;;;;;20.60;8.20;;;;;;;11.81;74.72;101305.28;5069999;28;20048;-65
2021/10/15 08:30:20;;;;;;;20.58;8.60;;;;;;;11.89;74.69;101308.00;5076489;28;20036;-65
2021/10/15 08:32:46;;;;;;;17.52;7.85;;;;;;;11.89;74.80;101295.53;5080155;28;20053;-65
2021/10/15 08:35:14;;;;;;;21.65;8.55;;;;;;;11.88;74.80;101285.09;5073674;28;20123;-65
2021/10/15 08:37:40;;;;;;;24.70;8.60;;;;;;;11.81;75.93;101297.28;5070645;28;20504;-65
2021/10/15 08:40:08;;;;;;;19.60;8.65;;;;;;;11.87;75.18;101313.47;5072360;28;20044;-65
2021/10/15 08:42:36;;;;;;;25.85;8.80;;;;;;;11.86;75.29;101311.81;5082705;28;20044;-66
2021/10/15 08:45:04;;;;;;;26.13;9.13;;;;;;;11.92;75.58;101313.06;5073611;28;20127;-65
2021/10/15 08:47:31;;;;;;;23.75;9.35;;;;;;;12.01;75.50;101316.66;5057539;28;20046;-65
2021/10/15 08:50:18;;;;;;;24.13;9.10;;;;;;;12.10;75.06;101321.09;5064464;28;20028;-65
2021/10/15 08:52:45;;;;;;;20.50;9.02;;;;;;;12.06;75.73;101320.53;5069162;28;20409;-65
2021/10/15 08:55:12;;;;;;;24.02;9.77;;;;;;;12.14;75.25;101316.31;5072298;28;20040;-65
2021/10/15 08:57:45;;;;;;;24.08;9.57;;;;;;;12.10;75.78;101315.75;5071195;28;20110;-65
2021/10/15 09:00:26;;;;;;;17.77;8.55;;;;;;;12.09;76.11;101319.41;5073307;28;20040;-65
2021/10/15 09:03:16;;;;;;;21.67;9.85;;;;;;;12.21;75.68;101328.00;5059140;28;20037;-65
2021/10/15 09:05:56;;;;;;;20.50;9.55;;;;;;;12.16;76.18;101323.13;5070917;28;20064;-65
2021/10/15 09:08:26;;;;;;;23.23;8.32;;;;;;;12.21;76.12;101336.00;5085095;28;20397;-65
2021/10/15 09:10:53;;;;;;;24.27;10.85;;;;;;;12.09;78.11;101340.66;5074941;28;20040;-65
2021/10/15 09:13:21;;;;;;;24.58;11.20;;;;;;;11.98;80.29;101354.19;5070159;28;20389;-65
2021/10/15 09:15:51;;;;;;;26.13;10.82;;;;;;;11.77;82.52;101349.91;5056602;28;20059;-65
2021/10/15 09:18:28;;;;;;;22.70;10.68;;;;;;;11.74;83.31;101358.19;5075275;28;20040;-65
2021/10/15 09:20:56;;;;;;;27.23;13.00;;;;;;;11.67;84.67;101363.22;5073502;28;20040;-65
2021/10/15 09:23:48;;;;;;;33.40;13.40;;;;;;;11.53;86.24;101369.00;5064530;28;20048;-65
2021/10/15 09:26:15;;;;;;;29.13;14.13;;;;;;;11.58;86.52;101376.56;5066105;28;20036;-65
2021/10/15 09:28:45;;;;;;;31.13;14.20;;;;;;;11.38;88.10;101379.25;5071980;28;20048;-66
2021/10/15 09:31:12;;;;;;;31.27;15.15;;;;;;;11.43;89.19;101379.69;5069757;28;20048;-66
2021/10/15 09:33:57;;;;;;;31.75;15.25;;;;;;;11.61;88.03;101379.75;5063900;28;20091;-65
2021/10/15 09:36:24;;;;;;;35.83;14.75;;;;;;;11.64;87.77;101386.59;5062308;28;20041;-66
2021/10/15 09:38:52;;;;;;;32.67;14.07;;;;;;;11.73;87.62;101385.72;5070475;28;20048;-66
2021/10/15 09:41:37;;;;;;;33.72;13.93;;;;;;;11.68;87.95;101382.69;5068235;28;20048;-66
2021/10/15 09:44:27;;;;;;;32.90;13.98;;;;;;;11.78;88.84;101390.63;5100344;28;20036;-66
2021/10/15 09:50:00;;;;;;;33.17;15.60;;;;;;;11.87;88.21;101392.41;5129065;27;20407;-66
2021/10/15 09:52:50;;;;;;;29.08;14.38;;;;;;;12.02;87.21;101395.44;5106607;28;20093;-66
2021/10/15 09:55:31;;;;;;;32.97;14.77;;;;;;;12.07;87.08;101399.31;5098929;28;20036;-65
2021/10/15 09:58:19;;;;;;;31.10;15.77;;;;;;;12.13;86.81;101399.72;5134753;27;20043;-65
2021/10/15 10:00:48;;;;;;;31.90;14.27;;;;;;;12.08;86.62;101410.81;5113769;28;20368;-64
2021/10/15 10:03:16;;;;;;;30.48;15.27;;;;;;;12.09;87.39;101407.97;5116498;28;20047;-68
2021/10/15 10:05:43;;;;;;;30.67;15.13;;;;;;;12.20;87.57;101408.78;5117397;27;20097;-65
2021/10/15 10:08:10;;;;;;;24.02;14.60;;;;;;;12.16;87.29;101410.91;5107954;28;20055;-65
2021/10/15 10:10:39;;;;;;;38.10;14.13;;;;;;;12.15;87.00;101422.53;5128153;27;20035;-65
2021/10/15 10:13:08;;;;;;;33.38;14.02;;;;;;;12.15;86.46;101413.69;5110793;27;20500;-65
2021/10/15 10:15:38;;;;;;;34.05;13.80;;;;;;;11.92;87.19;101416.75;5109831;28;20040;-66
2021/10/15 10:21:07;;;;;;;26.73;13.73;;;;;;;11.93;88.63;101418.41;5135925;27;20175;-65
2021/10/15 10:26:43;;;;;;;19.77;11.07;;;;;;;11.62;86.62;101447.88;5158092;27;20379;-65
2021/10/15 10:29:10;;;;;;;23.48;10.30;;;;;;;11.52;86.48;101455.88;5156551;27;20042;-65
2021/10/15 10:31:37;;;;;;;24.58;10.43;;;;;;;11.46;87.45;101456.44;5152133;27;20039;-66
2021/10/15 10:34:06;;;;;;;28.75;12.02;;;;;;;11.46;85.89;101464.41;5159746;27;20045;-66
2021/10/15 10:36:37;;;;;;;28.88;12.43;;;;;;;11.44;86.07;101462.88;5166529;27;20038;-64
2021/10/15 10:42:13;;;;;;;20.73;8.05;;;;;;;11.55;85.69;101464.53;5135254;27;20399;-66
2021/10/15 10:47:37;;;;;;;13.32;4.82;;;;;;;11.61;84.77;101469.28;5102191;27;20931;-65
2021/10/15 10:55:47;;;;;;;14.75;4.32;;;;;;;11.76;85.60;101475.00;5090124;28;20114;-65
2021/10/15 10:58:35;;;;;;;12.98;4.05;;;;;;;11.65;84.52;101481.31;5099698;28;20116;-65
2021/10/15 11:01:28;;;;;;;11.25;3.70;;;;;;;11.67;83.92;101484.66;5101785;28;20044;-66
2021/10/15 11:03:56;;;;;;;14.20;4.25;;;;;;;11.68;84.88;101492.50;5105634;28;20396;-67
2021/10/15 11:06:24;;;;;;;10.40;4.00;;;;;;;11.67;84.15;101496.13;5112268;28;20043;-65
2021/10/15 11:08:51;;;;;;;13.57;4.47;;;;;;;11.67;83.40;101496.13;5071775;28;20039;-65
2021/10/15 11:11:26;;;;;;;18.10;4.13;;;;;;;11.84;83.14;101499.00;5086201;28;20529;-66
2021/10/15 11:13:53;;;;;;;11.20;3.53;;;;;;;11.85;82.54;101501.53;5087969;28;20035;-66
2021/10/15 11:16:22;;;;;;;12.75;3.53;;;;;;;11.80;83.34;101511.75;5100669;28;20102;-66
2021/10/15 11:18:49;;;;;;;14.60;3.67;;;;;;;11.88;82.80;101503.91;5081232;28;20050;-65
2021/10/15 11:21:17;;;;;;;14.80;4.00;;;;;;;11.93;83.24;101514.13;5114532;28;20040;-65
2021/10/15 11:23:44;;;;;;;11.68;3.78;;;;;;;12.14;82.21;101513.94;5082168;28;20047;-65
2021/10/15 11:26:11;;;;;;;19.85;4.40;;;;;;;12.17;79.66;101508.34;5104878;28;20043;-65
2021/10/15 11:28:38;;;;;;;14.95;3.65;;;;;;;12.17;80.32;101507.47;5101156;28;20044;-65
2021/10/15 11:31:13;;;;;;;15.00;4.35;;;;;;;13.26;77.69;101507.53;5103935;28;20040;-65
2021/10/15 11:33:40;;;;;;;16.30;4.90;;;;;;;13.25;77.57;101504.03;5104913;28;20040;-65
2021/10/15 11:36:07;;;;;;;16.25;4.25;;;;;;;13.98;75.15;101510.09;5102794;28;20059;-65
2021/10/15 11:38:34;;;;;;;15.48;3.88;;;;;;;13.82;75.84;101508.16;5088361;28;20067;-65
2021/10/15 11:41:06;;;;;;;14.07;4.13;;;;;;;14.48;70.74;101512.03;5104898;28;20056;-66
2021/10/15 11:43:37;;;;;;;10.68;3.25;;;;;;;14.04;71.38;101516.63;5072063;28;20044;-66
2021/10/15 11:46:06;;;;;;;14.00;3.70;;;;;;;13.51;73.85;101527.25;5108831;28;20116;-66
2021/10/15 11:48:37;;;;;;;12.60;3.13;;;;;;;13.79;74.26;101525.31;5079032;28;20557;-66
2021/10/15 11:51:08;;;;;;;14.60;3.25;;;;;;;13.98;73.69;101523.44;5082024;28;20039;-66
2021/10/15 11:53:39;;;;;;;15.25;3.30;;;;;;;14.17;72.57;101519.69;5095295;28;20044;-66